createdAt,value
2022-11-24T00:01:47.940Z,30.23
2022-11-24T00:05:49.930Z,36.65
2022-11-24T00:09:51.899Z,29.63
2022-11-24T00:13:55.242Z,31.25
2022-11-24T00:18:27.344Z,26.50
2022-11-24T00:22:57.791Z,27.45
2022-11-24T00:26:59.329Z,31.02
2022-11-24T00:31:02.362Z,29.58
2022-11-24T00:35:04.901Z,31.45
2022-11-24T00:39:14.808Z,30.52
2022-11-24T00:43:41.205Z,34.15
2022-11-24T00:48:32.979Z,30.60
2022-11-24T00:52:34.725Z,28.88
2022-11-24T00:56:36.318Z,32.70
2022-11-24T01:00:38.011Z,28.65
2022-11-24T01:04:39.595Z,34.17
2022-11-24T01:08:42.280Z,29.63
2022-11-24T01:12:43.950Z,31.13
2022-11-24T01:16:45.882Z,29.20
2022-11-24T01:20:47.535Z,31.95
2022-11-24T01:24:49.165Z,27.35
2022-11-24T01:28:55.658Z,32.70
2022-11-24T01:32:57.335Z,28.27
2022-11-24T01:36:58.866Z,31.70
2022-11-24T01:41:21.946Z,26.65
2022-11-24T01:45:41.063Z,32.60
2022-11-24T01:49:51.327Z,29.55
2022-11-24T01:54:00.831Z,30.85
2022-11-24T01:58:19.283Z,27.40
2022-11-24T02:02:21.972Z,28.00
2022-11-24T02:06:27.866Z,31.77
2022-11-24T02:10:29.974Z,32.40
2022-11-24T02:14:32.177Z,32.97
2022-11-24T02:18:34.486Z,29.98
2022-11-24T02:22:51.122Z,35.03
2022-11-24T02:26:53.017Z,32.45
2022-11-24T02:30:55.404Z,32.65
2022-11-24T02:35:07.424Z,30.20
2022-11-24T02:39:12.362Z,33.60
2022-11-24T02:43:18.189Z,32.33
2022-11-24T02:47:19.840Z,27.33
2022-11-24T02:51:21.627Z,32.08
2022-11-24T02:55:25.065Z,30.40
2022-11-24T02:59:26.801Z,30.88
2022-11-24T03:03:28.822Z,29.98
2022-11-24T03:07:30.555Z,26.30
2022-11-24T03:11:32.771Z,30.40
2022-11-24T03:15:35.103Z,29.35
2022-11-24T03:19:36.744Z,26.13
2022-11-24T03:23:38.342Z,28.77
2022-11-24T03:27:40.052Z,33.17
2022-11-24T03:31:41.745Z,30.02
2022-11-24T03:35:43.487Z,30.13
2022-11-24T03:39:45.103Z,27.38
2022-11-24T03:43:46.663Z,35.25
2022-11-24T03:48:48.139Z,32.63
2022-11-24T03:52:49.756Z,28.65
2022-11-24T03:56:51.378Z,31.10
2022-11-24T04:00:54.621Z,32.15
2022-11-24T04:04:56.249Z,28.10
2022-11-24T04:08:57.893Z,32.28
2022-11-24T04:12:59.443Z,27.05
2022-11-24T04:17:02.634Z,30.13
2022-11-24T04:21:04.291Z,28.92
2022-11-24T04:25:06.915Z,29.15
2022-11-24T04:29:09.672Z,27.88
2022-11-24T04:33:11.511Z,30.40
2022-11-24T04:37:13.049Z,27.17
2022-11-24T04:41:14.736Z,32.33
2022-11-24T04:45:16.326Z,31.55
2022-11-24T04:49:17.954Z,29.40
2022-11-24T04:53:19.475Z,27.00
2022-11-24T04:57:23.943Z,31.05
2022-11-24T05:01:25.780Z,26.52
2022-11-24T05:05:27.515Z,31.17
2022-11-24T05:09:54.908Z,29.73
2022-11-24T05:13:52.955Z,22.23
2022-11-24T05:17:55.171Z,31.20
2022-11-24T05:21:57.834Z,29.52
2022-11-24T05:26:01.082Z,28.40
2022-11-24T05:30:03.314Z,27.15
2022-11-24T05:34:04.842Z,29.38
2022-11-24T05:38:06.572Z,23.30
2022-11-24T05:42:27.060Z,25.05
2022-11-24T05:46:28.654Z,26.67
2022-11-24T05:50:30.212Z,22.23
2022-11-24T05:54:31.994Z,26.48
2022-11-24T05:58:33.800Z,29.60
2022-11-24T06:02:35.623Z,23.05
2022-11-24T06:06:37.331Z,26.13
2022-11-24T06:10:38.915Z,22.80
2022-11-24T06:14:40.947Z,23.38
2022-11-24T06:18:42.644Z,25.40
2022-11-24T06:22:44.233Z,21.60
2022-11-24T06:26:45.954Z,22.02
2022-11-24T06:30:47.457Z,21.65
2022-11-24T06:34:49.221Z,25.33
2022-11-24T06:38:50.852Z,21.02
2022-11-24T06:42:52.633Z,20.20
2022-11-24T06:46:56.479Z,20.48
2022-11-24T06:50:59.975Z,22.63
2022-11-24T06:55:01.611Z,22.27
2022-11-24T06:59:03.215Z,20.83
2022-11-24T07:03:04.880Z,22.33
2022-11-24T07:07:06.852Z,21.58
2022-11-24T07:11:10.927Z,20.17
2022-11-24T07:15:12.654Z,23.00
2022-11-24T07:19:14.337Z,19.33
2022-11-24T07:23:15.985Z,23.55
2022-11-24T07:27:17.584Z,25.45
2022-11-24T07:31:21.848Z,21.20
2022-11-24T07:35:23.524Z,25.02
2022-11-24T07:39:25.900Z,23.45
2022-11-24T07:43:28.668Z,25.40
2022-11-24T07:47:30.410Z,26.45
2022-11-24T07:51:32.065Z,34.33
2022-11-24T07:55:33.535Z,21.42
2022-11-24T07:59:35.177Z,22.60
2022-11-24T08:03:37.292Z,25.40
2022-11-24T08:07:39.238Z,26.75
2022-11-24T08:11:40.780Z,26.33
2022-11-24T08:15:42.351Z,25.17
2022-11-24T08:19:44.287Z,23.67
2022-11-24T08:23:46.241Z,25.10
2022-11-24T08:33:42.610Z,27.10
2022-11-24T08:37:45.731Z,23.50
2022-11-24T08:41:56.659Z,23.10
2022-11-24T08:46:17.316Z,21.85
2022-11-24T08:50:31.630Z,22.80
2022-11-24T08:54:36.459Z,25.08
2022-11-24T08:58:39.701Z,21.63
2022-11-24T09:08:06.758Z,21.08
2022-11-24T09:12:20.267Z,22.33
2022-11-24T09:16:30.111Z,23.48
2022-11-24T09:20:32.262Z,24.23
2022-11-24T09:24:36.177Z,22.33
2022-11-24T09:28:38.150Z,23.15
2022-11-24T09:33:30.168Z,19.90
2022-11-24T09:38:09.628Z,21.75
2022-11-24T09:42:19.464Z,20.63
2022-11-24T09:46:28.528Z,19.23
2022-11-24T09:50:57.017Z,21.95
2022-11-24T09:55:28.014Z,22.23
2022-11-24T09:59:31.251Z,19.15
2022-11-24T10:03:50.481Z,21.48
2022-11-24T10:08:21.047Z,20.27
2022-11-24T10:12:51.509Z,22.27
2022-11-24T10:17:18.000Z,19.23
2022-11-24T10:21:44.083Z,23.02
2022-11-24T10:25:52.118Z,22.95
2022-11-24T10:29:55.539Z,22.52
2022-11-24T10:34:30.009Z,23.10
2022-11-24T10:38:48.515Z,24.00
2022-11-24T10:42:51.500Z,22.45
2022-11-24T10:46:53.138Z,23.50
2022-11-24T10:51:06.497Z,23.75
2022-11-24T10:55:52.809Z,27.15
2022-11-24T10:59:56.906Z,22.27
2022-11-24T11:04:02.584Z,24.77
2022-11-24T11:08:45.086Z,21.05
2022-11-24T11:12:47.456Z,24.23
2022-11-24T11:16:57.853Z,22.17
2022-11-24T11:21:02.897Z,23.52
2022-11-24T11:25:23.621Z,22.75
2022-11-24T11:34:35.227Z,19.65
2022-11-24T11:38:40.184Z,22.50
2022-11-24T11:43:02.377Z,16.73
2022-11-24T11:47:16.244Z,19.83
2022-11-24T11:51:50.160Z,20.98
2022-11-24T11:56:24.218Z,20.38
2022-11-24T12:00:26.650Z,20.25
2022-11-24T12:05:01.865Z,19.65
2022-11-24T12:09:36.233Z,21.55
2022-11-24T12:14:25.733Z,19.55
2022-11-24T12:18:59.001Z,16.95
2022-11-24T12:23:31.858Z,19.13
2022-11-24T12:27:50.216Z,20.17
2022-11-24T12:32:19.948Z,23.85
2022-11-24T12:36:52.417Z,21.60
2022-11-24T12:41:41.543Z,20.30
2022-11-24T12:46:41.355Z,19.75
2022-11-24T12:51:33.165Z,21.83
2022-11-24T12:56:11.524Z,17.95
2022-11-24T13:00:31.757Z,24.20
2022-11-24T13:05:10.273Z,18.65
2022-11-24T13:09:15.753Z,22.35
2022-11-24T13:13:17.826Z,19.45
2022-11-24T13:17:58.434Z,21.55
2022-11-24T13:22:49.861Z,19.85
2022-11-24T13:27:13.965Z,23.30
2022-11-24T13:31:27.963Z,20.27
2022-11-24T13:35:30.516Z,20.35
2022-11-24T13:39:52.999Z,20.38
2022-11-24T13:44:16.494Z,18.55
2022-11-24T13:49:09.189Z,21.02
2022-11-24T13:53:42.707Z,20.00
2022-11-24T13:58:13.158Z,17.63
2022-11-24T14:02:23.897Z,19.63
2022-11-24T14:07:07.996Z,19.48
2022-11-24T14:11:17.301Z,19.40
2022-11-24T14:15:57.888Z,19.00
2022-11-24T14:20:22.119Z,20.77
2022-11-24T14:24:41.659Z,21.98
2022-11-24T14:28:47.345Z,19.73
2022-11-24T14:33:19.444Z,21.50
2022-11-24T14:38:15.404Z,18.80
2022-11-24T14:42:27.284Z,22.10
2022-11-24T14:46:29.047Z,22.70
2022-11-24T14:50:30.685Z,21.63
2022-11-24T14:54:36.706Z,23.55
2022-11-24T14:58:47.128Z,23.98
2022-11-24T15:02:53.330Z,23.45
2022-11-24T15:07:08.259Z,26.52
2022-11-24T15:11:11.867Z,58.22
2022-11-24T15:15:13.480Z,27.17
2022-11-24T15:19:16.759Z,26.48
2022-11-24T15:23:41.776Z,24.27
2022-11-24T15:31:52.577Z,23.45
2022-11-24T15:35:55.154Z,25.33
2022-11-24T15:40:21.743Z,23.13
2022-11-24T15:44:23.814Z,23.02
2022-11-24T15:49:15.707Z,24.27
2022-11-24T15:53:24.478Z,24.67
2022-11-24T15:57:26.407Z,26.17
2022-11-24T16:02:33.735Z,25.55
2022-11-24T16:07:06.799Z,24.60
2022-11-24T16:11:35.957Z,27.50
2022-11-24T16:15:41.249Z,27.45
2022-11-24T16:19:43.574Z,24.88
2022-11-24T16:29:51.686Z,27.08
2022-11-24T16:33:53.202Z,27.50
2022-11-24T16:37:54.983Z,28.50
2022-11-24T16:41:56.668Z,30.00
2022-11-24T16:46:19.153Z,30.40
2022-11-24T16:50:22.026Z,30.98
2022-11-24T16:54:23.921Z,29.33
2022-11-24T16:58:25.510Z,34.80
2022-11-24T17:02:27.188Z,28.83
2022-11-24T17:06:29.150Z,27.75
2022-11-24T17:10:31.007Z,29.13
2022-11-24T17:14:32.953Z,29.52
2022-11-24T17:18:35.455Z,29.38
2022-11-24T17:22:36.847Z,27.83
2022-11-24T17:26:38.517Z,24.27
2022-11-24T17:30:40.020Z,25.15
2022-11-24T17:34:43.976Z,26.73
2022-11-24T17:38:45.695Z,25.63
2022-11-24T17:42:47.517Z,29.65
2022-11-24T17:46:49.151Z,26.38
2022-11-24T17:51:03.338Z,27.50
2022-11-24T17:55:05.417Z,26.92
2022-11-24T17:59:07.237Z,28.45
2022-11-24T18:03:08.690Z,30.17
2022-11-24T18:07:10.340Z,28.77
2022-11-24T18:11:24.602Z,26.35
2022-11-24T18:15:30.606Z,26.95
2022-11-24T18:19:32.209Z,31.15
2022-11-24T18:23:35.922Z,35.22
2022-11-24T18:27:37.721Z,26.92
2022-11-24T18:31:42.019Z,29.85
2022-11-24T18:35:44.540Z,33.67
2022-11-24T18:39:49.336Z,30.67
2022-11-24T18:43:50.920Z,31.65
2022-11-24T18:47:55.175Z,33.20
2022-11-24T18:51:59.371Z,28.05
2022-11-24T18:56:03.578Z,34.00
2022-11-24T19:00:06.635Z,33.53
2022-11-24T19:04:12.678Z,28.33
2022-11-24T19:08:16.245Z,32.95
2022-11-24T19:12:17.786Z,35.60
2022-11-24T19:16:23.289Z,30.10
2022-11-24T19:20:24.848Z,30.65
2022-11-24T19:24:26.627Z,32.28
2022-11-24T19:28:28.312Z,33.63
2022-11-24T19:32:31.360Z,30.42
2022-11-24T19:36:32.827Z,33.40
2022-11-24T19:40:34.395Z,32.85
2022-11-24T19:44:38.265Z,31.10
2022-11-24T19:48:45.323Z,30.13
2022-11-24T19:52:48.045Z,34.05
2022-11-24T19:56:49.950Z,32.58
2022-11-24T20:00:51.772Z,33.03
2022-11-24T20:04:53.454Z,29.83
2022-11-24T20:09:00.212Z,34.53
2022-11-24T20:13:04.574Z,28.88
2022-11-24T20:17:07.018Z,28.08
2022-11-24T20:21:19.627Z,30.42
2022-11-24T20:25:22.502Z,28.05
2022-11-24T20:29:24.601Z,30.88
2022-11-24T20:33:26.638Z,28.98
2022-11-24T20:37:29.520Z,32.70
2022-11-24T20:41:36.173Z,29.42
2022-11-24T20:45:40.196Z,33.05
2022-11-24T20:49:44.593Z,31.33
2022-11-24T20:53:46.356Z,27.45
2022-11-24T20:57:48.240Z,24.55
2022-11-24T21:01:51.543Z,29.60
2022-11-24T21:05:57.228Z,26.60
2022-11-24T21:09:58.748Z,29.70
2022-11-24T21:14:00.786Z,25.17
2022-11-24T21:18:03.138Z,26.77
2022-11-24T21:22:04.856Z,30.38
2022-11-24T21:26:13.023Z,29.42
2022-11-24T21:30:15.384Z,29.73
2022-11-24T21:34:18.560Z,26.98
2022-11-24T21:38:20.278Z,26.10
2022-11-24T21:42:21.752Z,29.48
2022-11-24T21:46:24.416Z,28.60
2022-11-24T21:50:25.920Z,28.40
2022-11-24T21:54:27.672Z,29.77
2022-11-24T21:58:29.773Z,23.13
2022-11-24T22:02:31.411Z,23.70
2022-11-24T22:06:33.276Z,24.10
2022-11-24T22:10:34.956Z,27.42
2022-11-24T22:14:40.395Z,27.20
2022-11-24T22:18:43.816Z,26.35
2022-11-24T22:22:50.509Z,22.27
2022-11-24T22:27:20.623Z,21.17
2022-11-24T22:31:24.939Z,21.35
2022-11-24T22:35:28.243Z,19.42
2022-11-24T22:39:29.942Z,21.42
2022-11-24T22:44:13.713Z,25.63
2022-11-24T22:48:19.909Z,25.17
2022-11-24T22:57:13.418Z,24.23
2022-11-24T23:01:40.913Z,17.95
2022-11-24T23:05:42.384Z,21.15
2022-11-24T23:10:16.064Z,23.50
2022-11-24T23:14:17.790Z,21.80
2022-11-24T23:18:19.373Z,23.60
2022-11-24T23:22:55.254Z,22.73
2022-11-24T23:26:57.079Z,21.58
2022-11-24T23:31:03.848Z,24.95
2022-11-24T23:35:09.699Z,24.92
2022-11-24T23:39:15.446Z,19.90
2022-11-24T23:43:17.794Z,20.73
2022-11-24T23:47:57.895Z,21.02
2022-11-24T23:52:24.726Z,23.45
2022-11-24T23:56:33.345Z,19.58
